This is the latest recevied weather packets stored in our database for station/object GW1598. If no packets are shown the sender has not sent any weather packets the latest 10 day(s).
| Time | Temp. | Humidity | Pressure | Rain* | Wind** | Luminosity | Snow |
|---|---|---|---|---|---|---|---|
| 1777017794 | 10.56° C | 96% | 1006.7 hPa | 0 mm | - | - | - |
| 1777017430 | 10.56° C | 96% | 1006.7 hPa | 0 mm | - | - | - |
| 1777016732 | 10.56° C | 95% | 1006.7 hPa | 0 mm | - | - | - |
| 1777014585 | 11.11° C | 95% | 1006.7 hPa | 0 mm | - | - | - |
| 1777014206 | 11.11° C | 95% | 1006.7 hPa | 0 mm | - | - | - |
| 1777012769 | 11.11° C | 95% | 1006.7 hPa | 0 mm | - | - | - |
| 1777007351 | 12.22° C | 92% | 1006.7 hPa | 0 mm | - | - | - |
| 1777005554 | 12.78° C | 90% | 1006.7 hPa | 0 mm | - | - | - |
| 1777003784 | 13.33° C | 89% | 1007.1 hPa | 0 mm | - | - | - |
| 1777003433 | 13.33° C | 89% | 1007.1 hPa | 0 mm | - | - | - |
| 1776999104 | 15° C | 83% | 1007.7 hPa | 0 mm | - | - | - |
| 1776996950 | 16.11° C | 82% | 1007.7 hPa | 0 mm | - | - | - |
| 1776995852 | 17.22° C | 78% | 1007.7 hPa | 0 mm | - | - | - |
| 1776994047 | 18.33° C | 72% | 1007.7 hPa | 0 mm | - | - | - |
| 1776991887 | 20° C | 68% | 1007.7 hPa | 0 mm | - | - | - |
| 1776991517 | 20° C | 68% | 1007.7 hPa | 0 mm | - | - | - |
| 1776989721 | 22.22° C | 55% | 1007.4 hPa | 0 mm | - | - | - |
| 1776987588 | 26.11° C | 44% | 1007.4 hPa | 0 mm | - | - | - |
| 1776984316 | 27.22° C | 43% | 1007.4 hPa | 0 mm | - | - | - |
| 1776983614 | 27.22° C | 42% | 1007.4 hPa | 0 mm | - | - | - |
| 1776980724 | 27.22° C | 44% | 1007.7 hPa | 0 mm | - | - | - |
| 1776979671 | 27.22° C | 44% | 1007.7 hPa | 0 mm | - | - | - |
| 1776977130 | 27.22° C | 47% | 1008.1 hPa | 0 mm | - | - | - |
| 1776976777 | 27.22° C | 47% | 1008.1 hPa | 0 mm | - | - | - |
| 1776976054 | 27.22° C | 45% | 1008.4 hPa | 0 mm | - | - | - |
* Rain since midnight (hover to see other rain measurements)
** Current wind speed in m/s (hover to see current wind gust speed)